createdAt,value
2023-10-05T00:02:22.669Z,101169.38
2023-10-05T00:04:52.514Z,101171.58
2023-10-05T00:07:28.521Z,101161.22
2023-10-05T00:09:58.865Z,101166.67
2023-10-05T00:12:26.950Z,101169.73
2023-10-05T00:15:10.375Z,101168.38
2023-10-05T00:17:41.220Z,101172.27
2023-10-05T00:20:34.672Z,101173.59
2023-10-05T00:23:06.839Z,101173.30
2023-10-05T00:25:35.424Z,101169.58
2023-10-05T00:28:07.424Z,101162.60
2023-10-05T00:30:36.199Z,101162.83
2023-10-05T00:33:08.793Z,101166.48
2023-10-05T00:35:38.489Z,101165.27
2023-10-05T00:38:17.467Z,101165.58
2023-10-05T00:40:56.742Z,101165.18
2023-10-05T00:43:26.958Z,101166.33
2023-10-05T00:45:58.537Z,101172.69
2023-10-05T00:48:42.345Z,101177.66
2023-10-05T00:51:25.048Z,101175.52
2023-10-05T00:53:54.466Z,101174.52
2023-10-05T00:56:24.168Z,101173.55
2023-10-05T00:59:05.952Z,101176.56
2023-10-05T01:01:54.772Z,101176.13
2023-10-05T01:04:41.747Z,101174.38
2023-10-05T01:07:19.598Z,101179.23
2023-10-05T01:09:53.169Z,101179.54
2023-10-05T01:12:21.137Z,101181.58
2023-10-05T01:14:54.695Z,101180.29
2023-10-05T01:17:27.707Z,101179.33
2023-10-05T01:19:58.409Z,101177.84
2023-10-05T01:22:34.206Z,101182.23
2023-10-05T01:25:04.081Z,101182.45
2023-10-05T01:27:32.877Z,101187.75
2023-10-05T01:30:01.201Z,101188.22
2023-10-05T01:32:29.284Z,101179.58
2023-10-05T01:34:56.929Z,101183.10
2023-10-05T01:37:27.242Z,101189.45
2023-10-05T01:39:55.046Z,101185.77
2023-10-05T01:42:22.581Z,101190.31
2023-10-05T01:44:50.749Z,101193.27
2023-10-05T01:47:18.824Z,101193.61
2023-10-05T01:49:52.837Z,101196.39
2023-10-05T01:52:22.436Z,101199.27
2023-10-05T01:54:50.173Z,101204.06
2023-10-05T01:57:18.140Z,101204.41
2023-10-05T01:59:45.948Z,101204.98
2023-10-05T02:02:17.241Z,101202.77
2023-10-05T02:04:46.014Z,101204.88
2023-10-05T02:07:16.216Z,101204.44
2023-10-05T02:09:44.064Z,101200.30
2023-10-05T02:12:11.837Z,101197.10
2023-10-05T02:14:42.788Z,101201.90
2023-10-05T02:17:11.037Z,101203.70
2023-10-05T02:19:42.795Z,101207.40
2023-10-05T02:22:13.032Z,101209.02
2023-10-05T02:24:43.474Z,101210.76
2023-10-05T02:27:13.059Z,101211.88
2023-10-05T02:29:41.846Z,101215.20
2023-10-05T02:32:13.142Z,101217.89
2023-10-05T02:34:46.316Z,101226.59
2023-10-05T02:37:14.818Z,101222.70
2023-10-05T02:39:42.873Z,101216.38
2023-10-05T02:42:13.704Z,101219.80
2023-10-05T02:44:44.647Z,101223.63
2023-10-05T02:47:17.446Z,101225.83
2023-10-05T02:49:45.523Z,101227.02
2023-10-05T02:52:18.070Z,101228.05
2023-10-05T02:54:49.999Z,101226.98
2023-10-05T02:57:18.489Z,101225.67
2023-10-05T02:59:46.445Z,101223.05
2023-10-05T03:02:18.474Z,101218.88
2023-10-05T03:04:46.816Z,101221.89
2023-10-05T03:07:21.090Z,101223.45
2023-10-05T03:09:53.257Z,101215.77
2023-10-05T03:12:22.357Z,101216.70
2023-10-05T03:14:52.737Z,101220.20
2023-10-05T03:17:21.500Z,101215.77
2023-10-05T03:19:52.044Z,101214.25
2023-10-05T03:22:19.930Z,101218.58
2023-10-05T03:24:49.097Z,101217.42
2023-10-05T03:27:17.868Z,101215.97
2023-10-05T03:29:48.291Z,101216.00
2023-10-05T03:32:20.557Z,101218.05
2023-10-05T03:34:57.299Z,101222.59
2023-10-05T03:37:26.126Z,101223.14
2023-10-05T03:40:08.503Z,101218.85
2023-10-05T03:42:36.345Z,101227.92
2023-10-05T03:45:11.363Z,101231.21
2023-10-05T03:47:39.601Z,101234.27
2023-10-05T03:50:09.900Z,101233.59
2023-10-05T03:52:37.603Z,101233.66
2023-10-05T03:55:07.126Z,101225.89
2023-10-05T03:57:34.567Z,101227.63
2023-10-05T04:00:17.593Z,101230.77
2023-10-05T04:02:48.135Z,101234.45
2023-10-05T04:05:19.824Z,101232.29
2023-10-05T04:07:53.178Z,101230.42
2023-10-05T04:10:39.474Z,101234.66
2023-10-05T04:13:07.368Z,101240.98
2023-10-05T04:15:35.001Z,101244.73
2023-10-05T04:18:02.712Z,101245.99
2023-10-05T04:20:30.450Z,101245.60
2023-10-05T04:22:58.139Z,101244.56
2023-10-05T04:25:25.904Z,101250.58
2023-10-05T04:27:54.346Z,101256.28
2023-10-05T04:30:23.071Z,101259.84
2023-10-05T04:32:50.987Z,101257.84
2023-10-05T04:35:28.385Z,101255.16
2023-10-05T04:37:56.316Z,101257.20
2023-10-05T04:40:27.178Z,101260.91
2023-10-05T04:43:00.480Z,101263.40
2023-10-05T04:45:29.610Z,101269.09
2023-10-05T04:48:00.919Z,101274.77
2023-10-05T04:50:28.882Z,101277.44
2023-10-05T04:52:56.459Z,101278.70
2023-10-05T04:55:33.808Z,101282.38
2023-10-05T04:58:20.537Z,101281.25
2023-10-05T05:00:48.237Z,101287.55
2023-10-05T05:03:34.298Z,101283.25
2023-10-05T05:06:08.122Z,101282.27
2023-10-05T05:08:40.394Z,101280.23
2023-10-05T05:11:13.437Z,101281.90
2023-10-05T05:13:41.106Z,101281.95
2023-10-05T05:16:09.538Z,101283.68
2023-10-05T05:18:40.182Z,101286.77
2023-10-05T05:21:08.943Z,101285.11
2023-10-05T05:23:37.020Z,101283.09
2023-10-05T05:26:10.936Z,101284.43
2023-10-05T05:28:39.089Z,101285.52
2023-10-05T05:31:15.927Z,101290.96
2023-10-05T05:33:45.809Z,101288.82
2023-10-05T05:36:14.519Z,101287.99
2023-10-05T05:38:42.458Z,101291.65
2023-10-05T05:45:17.487Z,101286.20
2023-10-05T05:47:49.863Z,101283.89
2023-10-05T05:50:19.902Z,101289.24
2023-10-05T05:52:49.774Z,101288.22
2023-10-05T05:55:24.839Z,101291.13
2023-10-05T05:57:55.383Z,101291.47
2023-10-05T06:00:26.687Z,101292.17
2023-10-05T06:02:58.663Z,101281.27
2023-10-05T06:05:29.247Z,101280.02
2023-10-05T06:07:59.396Z,101284.92
2023-10-05T06:10:51.242Z,101286.13
2023-10-05T06:13:51.870Z,101289.52
2023-10-05T06:16:22.647Z,101292.81
2023-10-05T06:18:57.057Z,101295.27
2023-10-05T06:21:27.374Z,101300.70
2023-10-05T06:24:04.843Z,101298.96
2023-10-05T06:26:35.113Z,101303.30
2023-10-05T06:29:08.067Z,101306.95
2023-10-05T06:31:46.173Z,101305.02
2023-10-05T06:34:24.735Z,101307.61
2023-10-05T06:36:54.036Z,101310.85
2023-10-05T06:39:27.517Z,101310.59
2023-10-05T06:41:55.841Z,101309.80
2023-10-05T06:44:24.978Z,101307.83
2023-10-05T06:46:54.805Z,101310.47
2023-10-05T06:49:24.220Z,101313.95
2023-10-05T06:51:51.957Z,101312.70
2023-10-05T06:54:19.927Z,101310.06
2023-10-05T06:56:51.171Z,101312.46
2023-10-05T06:59:22.635Z,101313.46
2023-10-05T07:01:50.714Z,101317.30
2023-10-05T07:04:22.553Z,101312.88
2023-10-05T07:06:51.659Z,101309.79
2023-10-05T07:09:19.216Z,101308.66
2023-10-05T07:11:46.983Z,101311.25
2023-10-05T07:14:15.374Z,101312.13
2023-10-05T07:16:42.992Z,101317.25
2023-10-05T07:19:10.800Z,101317.56
2023-10-05T07:21:39.777Z,101312.55
2023-10-05T07:24:08.783Z,101315.42
2023-10-05T07:26:36.370Z,101315.89
2023-10-05T07:29:15.904Z,101321.64
2023-10-05T07:31:52.078Z,101318.70
2023-10-05T07:34:19.858Z,101317.80
2023-10-05T07:36:47.471Z,101317.44
2023-10-05T07:39:16.358Z,101312.48
2023-10-05T07:41:45.556Z,101311.22
2023-10-05T07:44:13.485Z,101304.98
2023-10-05T07:46:44.500Z,101303.20
2023-10-05T07:49:12.340Z,101303.30
2023-10-05T07:51:40.045Z,101299.66
2023-10-05T07:54:08.490Z,101296.93
2023-10-05T07:56:37.062Z,101289.42
2023-10-05T07:59:05.580Z,101291.88
2023-10-05T08:01:33.580Z,101289.08
2023-10-05T08:04:01.385Z,101289.02
2023-10-05T08:06:29.140Z,101285.02
2023-10-05T08:08:56.699Z,101286.90
2023-10-05T08:11:24.569Z,101285.93
2023-10-05T08:13:53.604Z,101283.53
2023-10-05T08:16:21.339Z,101278.29
2023-10-05T08:18:51.140Z,101275.25
2023-10-05T08:21:18.597Z,101275.92
2023-10-05T08:23:46.261Z,101269.60
2023-10-05T08:26:14.544Z,101267.80
2023-10-05T08:28:42.218Z,101266.66
2023-10-05T08:31:10.832Z,101262.27
2023-10-05T08:33:41.487Z,101261.95
2023-10-05T08:36:13.420Z,101274.86
2023-10-05T08:38:41.371Z,101264.77
2023-10-05T08:41:13.123Z,101258.90
2023-10-05T08:43:41.121Z,101257.23
2023-10-05T08:46:16.243Z,101259.83
2023-10-05T08:48:43.799Z,101258.23
2023-10-05T08:51:14.517Z,101255.20
2023-10-05T08:53:45.795Z,101256.75
2023-10-05T08:56:17.097Z,101247.70
2023-10-05T08:58:50.107Z,101246.17
2023-10-05T09:01:36.549Z,101243.02
2023-10-05T09:04:11.285Z,101243.50
2023-10-05T09:06:49.535Z,101249.73
2023-10-05T09:09:20.989Z,101243.44
2023-10-05T09:11:48.546Z,101235.47
2023-10-05T09:14:19.576Z,101234.70
2023-10-05T09:16:59.765Z,101231.39
2023-10-05T09:19:28.431Z,101233.20
2023-10-05T09:22:02.201Z,101233.20
2023-10-05T09:24:32.152Z,101230.64
2023-10-05T09:27:18.676Z,101227.20
2023-10-05T09:29:47.145Z,101221.19
2023-10-05T09:32:27.125Z,101218.65
2023-10-05T09:34:58.164Z,101219.52
2023-10-05T09:37:28.825Z,101224.95
2023-10-05T09:40:01.111Z,101225.13
2023-10-05T09:42:29.112Z,101218.33
2023-10-05T09:45:00.534Z,101216.95
2023-10-05T09:47:34.787Z,101223.13
2023-10-05T09:50:11.186Z,101215.55
2023-10-05T09:52:44.629Z,101211.74
2023-10-05T09:55:15.195Z,101206.27
2023-10-05T09:57:52.900Z,101204.95
2023-10-05T10:00:27.510Z,101198.71
2023-10-05T10:02:59.939Z,101200.08
2023-10-05T10:05:36.674Z,101200.33
2023-10-05T10:08:14.927Z,101197.04
2023-10-05T10:10:53.386Z,101198.17
2023-10-05T10:13:24.502Z,101201.27
2023-10-05T10:15:58.190Z,101198.77
2023-10-05T10:18:38.729Z,101198.86
2023-10-05T10:21:14.540Z,101198.73
2023-10-05T10:23:46.288Z,101191.64
2023-10-05T10:26:22.351Z,101187.41
2023-10-05T10:28:58.995Z,101183.69
2023-10-05T10:31:44.862Z,101184.77
2023-10-05T10:34:21.170Z,101177.80
2023-10-05T10:36:53.752Z,101178.11
2023-10-05T10:39:24.985Z,101177.55
2023-10-05T10:42:02.591Z,101176.50
2023-10-05T10:44:30.256Z,101171.10
2023-10-05T10:47:12.420Z,101169.64
2023-10-05T10:49:41.655Z,101157.45
2023-10-05T10:52:16.905Z,101153.15
2023-10-05T10:54:48.247Z,101152.67
2023-10-05T10:57:23.962Z,101149.16
2023-10-05T11:00:14.586Z,101149.46
2023-10-05T11:02:42.496Z,101147.90
2023-10-05T11:05:18.518Z,101147.34
2023-10-05T11:07:46.444Z,101149.19
2023-10-05T11:10:20.621Z,101149.54
2023-10-05T11:12:55.611Z,101134.00
2023-10-05T11:15:29.961Z,101130.15
2023-10-05T11:18:01.382Z,101128.09
2023-10-05T11:20:35.149Z,101126.64
2023-10-05T11:23:10.365Z,101127.44
2023-10-05T11:25:48.518Z,101125.90
2023-10-05T11:28:26.744Z,101118.13
2023-10-05T11:31:04.338Z,101118.60
2023-10-05T11:34:07.649Z,101114.69
2023-10-05T11:36:30.671Z,101108.25
2023-10-05T11:39:01.692Z,101107.67
2023-10-05T11:41:33.834Z,101103.77
2023-10-05T11:44:01.852Z,101110.48
2023-10-05T11:46:48.224Z,101109.10
2023-10-05T11:49:16.097Z,101105.66
2023-10-05T11:51:44.152Z,101103.32
2023-10-05T11:54:12.837Z,101096.45
2023-10-05T11:56:42.003Z,101096.17
2023-10-05T11:59:12.691Z,101094.75
2023-10-05T12:01:44.521Z,101094.84
2023-10-05T12:04:12.713Z,101091.20
2023-10-05T12:06:41.104Z,101081.40
2023-10-05T12:09:09.100Z,101076.23
2023-10-05T12:11:40.045Z,101071.67
2023-10-05T12:14:07.646Z,101071.77
2023-10-05T12:16:36.331Z,101070.02
2023-10-05T12:19:15.239Z,101065.05
2023-10-05T12:21:44.676Z,101063.93
2023-10-05T12:24:13.085Z,101056.64
2023-10-05T12:26:41.158Z,101055.06
2023-10-05T12:29:13.794Z,101053.58
2023-10-05T12:31:42.257Z,101048.79
2023-10-05T12:34:25.462Z,101048.15
2023-10-05T12:36:55.929Z,101049.25
2023-10-05T12:39:29.216Z,101047.59
2023-10-05T12:41:57.705Z,101043.78
2023-10-05T12:44:25.481Z,101035.79
2023-10-05T12:46:53.150Z,101030.84
2023-10-05T12:49:21.910Z,101027.15
2023-10-05T12:51:51.585Z,101022.52
2023-10-05T12:54:29.925Z,101008.45
2023-10-05T12:57:13.645Z,100997.65
2023-10-05T12:59:45.871Z,100994.10
2023-10-05T13:02:20.450Z,100984.62
2023-10-05T13:04:48.902Z,100982.49
2023-10-05T13:07:21.340Z,100977.81
2023-10-05T13:10:00.990Z,100969.48
2023-10-05T13:12:30.690Z,100963.41
2023-10-05T13:14:58.247Z,100959.53
2023-10-05T13:17:26.629Z,100957.71
2023-10-05T13:19:54.188Z,100958.80
2023-10-05T13:22:22.637Z,100956.35
2023-10-05T13:24:56.723Z,100952.20
2023-10-05T13:27:26.032Z,100953.43
2023-10-05T13:29:55.711Z,100947.54
2023-10-05T13:32:24.267Z,100948.19
2023-10-05T13:34:52.046Z,100947.23
2023-10-05T13:37:21.329Z,100945.83
2023-10-05T13:39:49.318Z,100944.86
2023-10-05T13:42:27.116Z,100942.22
2023-10-05T13:44:56.110Z,100946.38
2023-10-05T13:47:28.537Z,100955.20
2023-10-05T13:50:09.205Z,100944.44
2023-10-05T13:52:40.317Z,100938.08
2023-10-05T13:55:09.339Z,100931.96
2023-10-05T13:57:38.276Z,100930.09
2023-10-05T14:00:19.203Z,100926.42
2023-10-05T14:02:51.220Z,100925.45
2023-10-05T14:05:22.204Z,100926.92
2023-10-05T14:07:52.671Z,100921.33
2023-10-05T14:10:22.485Z,100919.00
2023-10-05T14:12:50.669Z,100915.81
2023-10-05T14:15:22.003Z,100918.66
2023-10-05T14:17:52.604Z,100924.69
2023-10-05T14:20:20.342Z,100921.46
2023-10-05T14:22:48.236Z,100922.67
2023-10-05T14:25:19.407Z,100919.36
2023-10-05T14:27:48.799Z,100914.61
2023-10-05T14:30:21.590Z,100911.60
2023-10-05T14:32:52.253Z,100910.56
2023-10-05T14:35:20.771Z,100909.80
2023-10-05T14:37:51.357Z,100913.66
2023-10-05T14:40:26.440Z,100912.48
2023-10-05T14:42:54.489Z,100916.45
2023-10-05T14:45:23.017Z,100917.92
2023-10-05T14:47:50.735Z,100916.63
2023-10-05T14:50:19.199Z,100911.05
2023-10-05T14:52:53.530Z,100913.20
2023-10-05T14:55:21.776Z,100914.27
2023-10-05T14:57:49.460Z,100911.95
2023-10-05T15:00:17.752Z,100907.95
2023-10-05T15:02:45.804Z,100906.79
2023-10-05T15:05:14.489Z,100906.17
2023-10-05T15:07:42.929Z,100904.38
2023-10-05T15:10:17.450Z,100904.13
2023-10-05T15:12:45.877Z,100897.33
2023-10-05T15:15:16.999Z,100898.20
2023-10-05T15:17:46.131Z,100897.55
2023-10-05T15:20:15.748Z,100891.58
2023-10-05T15:22:46.241Z,100890.92
2023-10-05T15:25:17.121Z,100890.25
2023-10-05T15:27:44.754Z,100896.61
2023-10-05T15:30:16.673Z,100893.77
2023-10-05T15:32:50.693Z,100889.56
2023-10-05T15:35:19.619Z,100889.75
2023-10-05T15:37:48.498Z,100887.13
2023-10-05T15:40:17.094Z,100881.27
2023-10-05T15:42:46.461Z,100884.39
2023-10-05T15:45:14.895Z,100888.87
2023-10-05T15:47:45.357Z,100889.38
2023-10-05T15:50:17.376Z,100887.02
2023-10-05T15:52:59.068Z,100884.96
2023-10-05T15:55:28.024Z,100881.73
2023-10-05T15:57:56.540Z,100884.85
2023-10-05T16:00:27.188Z,100889.30
2023-10-05T16:02:59.305Z,100887.14
2023-10-05T16:05:28.402Z,100887.52
2023-10-05T16:08:01.001Z,100888.13
2023-10-05T16:10:29.646Z,100890.77
2023-10-05T16:12:57.768Z,100890.34
2023-10-05T16:15:25.596Z,100886.90
2023-10-05T16:17:53.830Z,100882.48
2023-10-05T16:20:26.997Z,100878.77
2023-10-05T16:22:59.631Z,100880.05
2023-10-05T16:25:28.375Z,100878.33
2023-10-05T16:27:56.137Z,100879.56
2023-10-05T16:30:23.734Z,100880.09
2023-10-05T16:32:52.679Z,100883.77
2023-10-05T16:35:20.347Z,100883.23
2023-10-05T16:37:49.862Z,100880.33
2023-10-05T16:40:20.918Z,100875.84
2023-10-05T16:42:49.786Z,100874.58
2023-10-05T16:45:21.285Z,100873.58
2023-10-05T16:47:51.171Z,100879.80
2023-10-05T16:50:20.361Z,100875.95
2023-10-05T16:52:49.429Z,100874.61
2023-10-05T16:55:21.387Z,100874.13
2023-10-05T16:57:51.717Z,100874.95
2023-10-05T17:00:28.798Z,100871.25
2023-10-05T17:02:57.082Z,100870.51
2023-10-05T17:05:29.946Z,100868.11
2023-10-05T17:08:00.725Z,100870.25
2023-10-05T17:10:28.581Z,100867.32
2023-10-05T17:12:56.554Z,100866.21
2023-10-05T17:15:30.061Z,100862.54
2023-10-05T17:17:57.880Z,100858.16
2023-10-05T17:20:25.684Z,100859.06
2023-10-05T17:22:56.294Z,100857.11
2023-10-05T17:25:24.977Z,100849.63
2023-10-05T17:27:52.760Z,100847.48
2023-10-05T17:30:20.551Z,100850.25
2023-10-05T17:32:48.839Z,100854.63
2023-10-05T17:35:25.898Z,100852.66
2023-10-05T17:37:54.331Z,100849.70
2023-10-05T17:40:22.540Z,100848.38
2023-10-05T17:42:50.544Z,100845.41
2023-10-05T17:45:18.291Z,100843.66
2023-10-05T17:47:46.761Z,100843.25
2023-10-05T17:50:16.342Z,100843.41
2023-10-05T17:52:47.794Z,100845.98
2023-10-05T17:55:15.868Z,100848.22
2023-10-05T17:57:43.622Z,100845.65
2023-10-05T18:03:08.089Z,100846.45
2023-10-05T18:05:39.533Z,100844.20
2023-10-05T18:08:08.066Z,100844.05
2023-10-05T18:10:41.441Z,100840.02
2023-10-05T18:13:08.976Z,100837.09
2023-10-05T18:15:36.483Z,100832.66
2023-10-05T18:18:08.787Z,100828.86
2023-10-05T18:20:36.667Z,100825.02
2023-10-05T18:23:07.110Z,100824.02
2023-10-05T18:25:35.828Z,100822.66
2023-10-05T18:28:06.444Z,100823.55
2023-10-05T18:30:36.213Z,100819.84
2023-10-05T18:33:07.706Z,100816.80
2023-10-05T18:35:37.581Z,100817.83
2023-10-05T18:38:08.738Z,100815.66
2023-10-05T18:40:36.607Z,100812.16
2023-10-05T18:43:07.194Z,100810.92
2023-10-05T18:45:35.474Z,100810.71
2023-10-05T18:48:03.707Z,100811.84
2023-10-05T18:50:31.385Z,100807.84
2023-10-05T18:52:59.170Z,100808.59
2023-10-05T18:55:26.835Z,100806.37
2023-10-05T18:57:54.529Z,100803.13
2023-10-05T19:00:22.404Z,100800.80
2023-10-05T19:02:50.530Z,100797.55
2023-10-05T19:05:18.546Z,100800.90
2023-10-05T19:07:47.972Z,100801.19
2023-10-05T19:10:18.580Z,100802.11
2023-10-05T19:12:47.774Z,100794.54
2023-10-05T19:15:15.388Z,100792.16
2023-10-05T19:17:43.061Z,100793.30
2023-10-05T19:20:10.981Z,100791.73
2023-10-05T19:22:38.678Z,100783.83
2023-10-05T19:25:08.039Z,100786.81
2023-10-05T19:27:37.275Z,100786.89
2023-10-05T19:30:06.124Z,100786.25
2023-10-05T19:32:34.831Z,100785.29
2023-10-05T19:35:03.092Z,100783.31
2023-10-05T19:37:30.730Z,100785.17
2023-10-05T19:39:58.411Z,100779.57
2023-10-05T19:42:25.973Z,100779.02
2023-10-05T19:44:53.535Z,100778.58
2023-10-05T19:47:21.404Z,100777.85
2023-10-05T19:49:51.640Z,100775.17
2023-10-05T19:52:19.402Z,100772.27
2023-10-05T19:54:46.950Z,100771.98
2023-10-05T19:57:14.923Z,100769.75
2023-10-05T19:59:46.680Z,100768.80
2023-10-05T20:02:15.475Z,100766.84
2023-10-05T20:04:43.152Z,100762.58
2023-10-05T20:07:11.725Z,100758.84
2023-10-05T20:09:42.345Z,100755.38
2023-10-05T20:12:09.857Z,100754.78
2023-10-05T20:14:37.408Z,100749.79
2023-10-05T20:17:09.350Z,100748.34
2023-10-05T20:19:36.993Z,100748.41
2023-10-05T20:22:04.955Z,100747.63
2023-10-05T20:24:32.823Z,100745.63
2023-10-05T20:27:00.414Z,100743.66
2023-10-05T20:29:31.827Z,100742.29
2023-10-05T20:31:59.428Z,100735.75
2023-10-05T20:34:28.311Z,100734.83
2023-10-05T20:36:56.057Z,100735.15
2023-10-05T20:39:24.342Z,100730.64
2023-10-05T20:41:55.641Z,100727.20
2023-10-05T20:44:24.161Z,100724.58
2023-10-05T20:46:51.903Z,100725.78
2023-10-05T20:49:19.584Z,100722.17
2023-10-05T20:51:47.254Z,100716.73
2023-10-05T20:54:14.803Z,100714.36
2023-10-05T20:56:44.720Z,100712.59
2023-10-05T20:59:13.711Z,100705.08
2023-10-05T21:01:41.346Z,100703.92
2023-10-05T21:04:09.340Z,100698.64
2023-10-05T21:06:37.523Z,100694.98
2023-10-05T21:09:05.557Z,100693.07
2023-10-05T21:11:34.580Z,100689.29
2023-10-05T21:14:02.372Z,100688.75
2023-10-05T21:16:30.300Z,100683.35
2023-10-05T21:18:57.985Z,100674.95
2023-10-05T21:21:26.286Z,100672.70
2023-10-05T21:23:53.926Z,100670.25
2023-10-05T21:26:22.007Z,100668.71
2023-10-05T21:28:49.549Z,100661.88
2023-10-05T21:31:17.076Z,100661.82
2023-10-05T21:33:44.570Z,100656.97
2023-10-05T21:36:13.736Z,100651.03
2023-10-05T21:38:41.550Z,100649.77
2023-10-05T21:41:09.356Z,100645.92
2023-10-05T21:43:37.011Z,100646.52
2023-10-05T21:46:04.559Z,100641.01
2023-10-05T21:48:32.619Z,100643.11
2023-10-05T21:51:00.268Z,100644.61
2023-10-05T21:53:28.229Z,100641.07
2023-10-05T21:55:55.910Z,100638.95
2023-10-05T21:58:24.607Z,100634.58
2023-10-05T22:00:54.399Z,100635.31
2023-10-05T22:03:22.897Z,100635.92
2023-10-05T22:05:50.641Z,100640.58
2023-10-05T22:08:18.297Z,100642.79
2023-10-05T22:10:45.928Z,100641.44
2023-10-05T22:13:14.049Z,100637.48
2023-10-05T22:15:41.806Z,100633.08
2023-10-05T22:18:11.785Z,100627.79
2023-10-05T22:20:40.316Z,100624.73
2023-10-05T22:23:08.989Z,100616.05
2023-10-05T22:25:40.823Z,100611.98
2023-10-05T22:28:09.147Z,100605.59
2023-10-05T22:30:38.935Z,100601.25
2023-10-05T22:33:09.877Z,100606.27
2023-10-05T22:35:39.069Z,100614.88
2023-10-05T22:38:06.966Z,100614.83
2023-10-05T22:40:36.673Z,100613.02
2023-10-05T22:43:04.522Z,100608.75
2023-10-05T22:45:33.898Z,100602.13
2023-10-05T22:48:01.511Z,100596.21
2023-10-05T22:50:29.142Z,100600.63
2023-10-05T22:52:57.512Z,100602.55
2023-10-05T22:55:26.147Z,100602.45
2023-10-05T22:57:55.717Z,100601.27
2023-10-05T23:00:23.403Z,100599.71
2023-10-05T23:02:51.146Z,100605.17
2023-10-05T23:05:21.777Z,100606.61
2023-10-05T23:07:49.371Z,100607.27
2023-10-05T23:10:16.777Z,100606.11
2023-10-05T23:12:44.354Z,100605.11
2023-10-05T23:15:11.915Z,100604.35
2023-10-05T23:17:40.418Z,100606.59
2023-10-05T23:20:09.180Z,100605.09
2023-10-05T23:22:39.167Z,100607.85
2023-10-05T23:25:18.620Z,100605.48
2023-10-05T23:27:47.948Z,100601.23
2023-10-05T23:30:16.728Z,100602.33
2023-10-05T23:32:48.000Z,100601.20
2023-10-05T23:35:20.846Z,100597.98
2023-10-05T23:37:53.099Z,100601.15
2023-10-05T23:40:22.225Z,100599.33
2023-10-05T23:42:49.810Z,100597.13
2023-10-05T23:45:19.497Z,100593.48
2023-10-05T23:47:49.585Z,100595.30
2023-10-05T23:50:27.417Z,100591.36
2023-10-05T23:52:58.152Z,100584.61
2023-10-05T23:55:26.645Z,100579.76
2023-10-05T23:57:54.720Z,100579.25
